Preview of NWS' New Version of Forecast
This preview is not operational and should not be used for support decisions.

Terminal Aerodrome Forecast (TAF)

Issued by National Weather Service (NWS)

                            
000
FTUS46 KMTR 221139
TAFSTS
TAF
KSTS 221139Z 2212/2312 VRB03KT P6SM SCT150
     FM221700 VRB03KT P6SM SCT150
     FM222000 20009KT P6SM FEW150
     FM230400 16005KT P6SM SKC
     FM231000 00000KT P6SM SCT006=